Cromwell, Kentucky
Current Conditions -  °F | °C
As of 4:53 PM on Wednesday 22 Oct 2014 (Local Time) from KBWG Reporting Station
Clear Clear  
Wind Chill: 62°   Ceiling: Unl
Heat Index: 62°   Visibility: 10mi
Dew Point: 41°   Wind: 7mph
Humidity: 46%   Direction: 30°NNE
Pressure: 30.21"   Gusts: NA
Location:  37.34°N, 86.79°W
Report Text: KBWG 222153Z AUTO 03006KT 10SM CLR 17/05 A3021 RMK AO2 SLP231 T01670050
Loading
Personal Weather Stations






























Interactive Weather Map
Tropical Storm Tracking
New forecast layout! Learn more

10-Day Weather Forecast

Advertisements
Track Severe Weather on mobile